sensor_id;sensor_type;location;lat;lon;timestamp;P1;durP1;ratioP1;P2;durP2;ratioP2
59145;SDS011;44928;53.074;6.646;2024-02-26T00:02:25;13.43;;;7.63;;
59145;SDS011;44928;53.074;6.646;2024-02-26T00:04:50;13.55;;;7.30;;
59145;SDS011;44928;53.074;6.646;2024-02-26T00:07:16;14.00;;;7.85;;
59145;SDS011;44928;53.074;6.646;2024-02-26T00:09:42;13.85;;;7.10;;
59145;SDS011;44928;53.074;6.646;2024-02-26T00:12:08;14.10;;;7.05;;
59145;SDS011;44928;53.074;6.646;2024-02-26T00:14:34;13.07;;;7.28;;
59145;SDS011;44928;53.074;6.646;2024-02-26T00:17:00;15.15;;;8.38;;
59145;SDS011;44928;53.074;6.646;2024-02-26T00:19:25;13.50;;;7.70;;
59145;SDS011;44928;53.074;6.646;2024-02-26T00:21:51;13.15;;;7.35;;
59145;SDS011;44928;53.074;6.646;2024-02-26T00:24:19;14.73;;;7.75;;
59145;SDS011;44928;53.074;6.646;2024-02-26T00:26:44;14.40;;;7.93;;
59145;SDS011;44928;53.074;6.646;2024-02-26T00:29:10;14.45;;;8.00;;
59145;SDS011;44928;53.074;6.646;2024-02-26T00:31:36;14.60;;;7.65;;
59145;SDS011;44928;53.074;6.646;2024-02-26T00:34:05;15.07;;;8.35;;
59145;SDS011;44928;53.074;6.646;2024-02-26T00:36:31;15.50;;;8.40;;
59145;SDS011;44928;53.074;6.646;2024-02-26T00:38:56;15.50;;;9.23;;
59145;SDS011;44928;53.074;6.646;2024-02-26T00:41:22;15.18;;;8.88;;
59145;SDS011;44928;53.074;6.646;2024-02-26T00:43:48;15.13;;;8.90;;
59145;SDS011;44928;53.074;6.646;2024-02-26T00:46:14;17.70;;;9.73;;
59145;SDS011;44928;53.074;6.646;2024-02-26T00:48:40;17.90;;;9.98;;
59145;SDS011;44928;53.074;6.646;2024-02-26T00:51:05;19.02;;;9.77;;
59145;SDS011;44928;53.074;6.646;2024-02-26T00:53:32;16.42;;;9.73;;
59145;SDS011;44928;53.074;6.646;2024-02-26T00:55:58;18.38;;;10.68;;
59145;SDS011;44928;53.074;6.646;2024-02-26T00:58:25;19.67;;;10.90;;
59145;SDS011;44928;53.074;6.646;2024-02-26T01:00:51;18.48;;;10.63;;
59145;SDS011;44928;53.074;6.646;2024-02-26T01:03:19;20.23;;;12.75;;
59145;SDS011;44928;53.074;6.646;2024-02-26T01:05:45;18.95;;;11.30;;
59145;SDS011;44928;53.074;6.646;2024-02-26T01:08:11;20.02;;;11.75;;
59145;SDS011;44928;53.074;6.646;2024-02-26T01:10:37;22.10;;;13.00;;
59145;SDS011;44928;53.074;6.646;2024-02-26T01:13:03;20.38;;;11.43;;
59145;SDS011;44928;53.074;6.646;2024-02-26T01:15:28;19.45;;;11.43;;
59145;SDS011;44928;53.074;6.646;2024-02-26T01:17:54;20.52;;;12.23;;
59145;SDS011;44928;53.074;6.646;2024-02-26T01:20:20;20.45;;;12.15;;
59145;SDS011;44928;53.074;6.646;2024-02-26T01:22:46;21.90;;;11.80;;
59145;SDS011;44928;53.074;6.646;2024-02-26T01:25:12;21.92;;;12.80;;
59145;SDS011;44928;53.074;6.646;2024-02-26T01:27:38;20.42;;;12.00;;
59145;SDS011;44928;53.074;6.646;2024-02-26T01:30:06;20.35;;;12.07;;
59145;SDS011;44928;53.074;6.646;2024-02-26T01:32:32;20.92;;;11.30;;
59145;SDS011;44928;53.074;6.646;2024-02-26T01:34:58;20.40;;;12.07;;
59145;SDS011;44928;53.074;6.646;2024-02-26T01:37:24;21.13;;;12.52;;
59145;SDS011;44928;53.074;6.646;2024-02-26T01:39:50;20.02;;;11.52;;
59145;SDS011;44928;53.074;6.646;2024-02-26T01:42:16;19.85;;;12.05;;
59145;SDS011;44928;53.074;6.646;2024-02-26T01:44:42;19.13;;;11.70;;
59145;SDS011;44928;53.074;6.646;2024-02-26T01:47:10;20.27;;;11.75;;
59145;SDS011;44928;53.074;6.646;2024-02-26T01:49:37;21.48;;;12.55;;
59145;SDS011;44928;53.074;6.646;2024-02-26T01:52:04;19.55;;;11.98;;
59145;SDS011;44928;53.074;6.646;2024-02-26T01:54:34;20.83;;;12.23;;
59145;SDS011;44928;53.074;6.646;2024-02-26T01:57:02;18.83;;;11.48;;
59145;SDS011;44928;53.074;6.646;2024-02-26T01:59:30;20.80;;;12.63;;
59145;SDS011;44928;53.074;6.646;2024-02-26T02:01:57;19.85;;;12.38;;
59145;SDS011;44928;53.074;6.646;2024-02-26T02:04:27;21.42;;;12.63;;
59145;SDS011;44928;53.074;6.646;2024-02-26T02:06:53;20.20;;;12.05;;
59145;SDS011;44928;53.074;6.646;2024-02-26T02:09:19;19.48;;;11.80;;
59145;SDS011;44928;53.074;6.646;2024-02-26T02:11:45;19.38;;;12.00;;
59145;SDS011;44928;53.074;6.646;2024-02-26T02:14:13;20.60;;;11.95;;
59145;SDS011;44928;53.074;6.646;2024-02-26T02:16:39;18.77;;;11.27;;
59145;SDS011;44928;53.074;6.646;2024-02-26T02:19:05;18.65;;;10.95;;
59145;SDS011;44928;53.074;6.646;2024-02-26T02:21:31;16.80;;;10.35;;
59145;SDS011;44928;53.074;6.646;2024-02-26T02:23:57;17.10;;;10.50;;
59145;SDS011;44928;53.074;6.646;2024-02-26T02:26:23;17.88;;;10.40;;
59145;SDS011;44928;53.074;6.646;2024-02-26T02:28:48;17.90;;;10.40;;
59145;SDS011;44928;53.074;6.646;2024-02-26T02:31:15;16.95;;;10.27;;
59145;SDS011;44928;53.074;6.646;2024-02-26T02:33:41;16.55;;;9.90;;
59145;SDS011;44928;53.074;6.646;2024-02-26T02:36:07;17.23;;;10.38;;
59145;SDS011;44928;53.074;6.646;2024-02-26T02:38:38;16.85;;;9.77;;
59145;SDS011;44928;53.074;6.646;2024-02-26T02:41:14;16.80;;;9.75;;
59145;SDS011;44928;53.074;6.646;2024-02-26T02:43:39;17.52;;;10.05;;
59145;SDS011;44928;53.074;6.646;2024-02-26T02:46:05;15.88;;;9.18;;
59145;SDS011;44928;53.074;6.646;2024-02-26T02:48:31;17.10;;;10.00;;
59145;SDS011;44928;53.074;6.646;2024-02-26T02:50:57;18.45;;;10.05;;
59145;SDS011;44928;53.074;6.646;2024-02-26T02:53:23;15.52;;;9.00;;
59145;SDS011;44928;53.074;6.646;2024-02-26T02:55:48;17.42;;;10.20;;
59145;SDS011;44928;53.074;6.646;2024-02-26T02:58:14;14.77;;;8.98;;
59145;SDS011;44928;53.074;6.646;2024-02-26T03:00:40;14.90;;;9.38;;
59145;SDS011;44928;53.074;6.646;2024-02-26T03:03:06;13.90;;;8.10;;
59145;SDS011;44928;53.074;6.646;2024-02-26T03:05:31;14.40;;;8.60;;
59145;SDS011;44928;53.074;6.646;2024-02-26T03:07:57;14.00;;;8.40;;
59145;SDS011;44928;53.074;6.646;2024-02-26T03:10:23;14.88;;;8.50;;
59145;SDS011;44928;53.074;6.646;2024-02-26T03:12:49;14.50;;;8.15;;
59145;SDS011;44928;53.074;6.646;2024-02-26T03:15:15;13.43;;;7.70;;
59145;SDS011;44928;53.074;6.646;2024-02-26T03:17:41;13.98;;;8.27;;
59145;SDS011;44928;53.074;6.646;2024-02-26T03:20:08;12.85;;;7.53;;
59145;SDS011;44928;53.074;6.646;2024-02-26T03:22:34;13.15;;;7.18;;
59145;SDS011;44928;53.074;6.646;2024-02-26T03:25:00;12.55;;;6.85;;
59145;SDS011;44928;53.074;6.646;2024-02-26T03:27:26;13.88;;;7.72;;
59145;SDS011;44928;53.074;6.646;2024-02-26T03:29:52;13.65;;;7.53;;
59145;SDS011;44928;53.074;6.646;2024-02-26T03:32:18;12.88;;;7.38;;
59145;SDS011;44928;53.074;6.646;2024-02-26T03:34:44;12.02;;;6.95;;
59145;SDS011;44928;53.074;6.646;2024-02-26T03:37:09;12.00;;;6.90;;
59145;SDS011;44928;53.074;6.646;2024-02-26T03:39:36;10.73;;;6.57;;
59145;SDS011;44928;53.074;6.646;2024-02-26T03:42:02;11.82;;;6.57;;
59145;SDS011;44928;53.074;6.646;2024-02-26T03:44:28;12.45;;;6.75;;
59145;SDS011;44928;53.074;6.646;2024-02-26T03:46:54;12.48;;;6.80;;
59145;SDS011;44928;53.074;6.646;2024-02-26T03:49:21;11.02;;;6.13;;
59145;SDS011;44928;53.074;6.646;2024-02-26T03:51:47;11.55;;;5.75;;
59145;SDS011;44928;53.074;6.646;2024-02-26T03:54:14;10.80;;;6.03;;
59145;SDS011;44928;53.074;6.646;2024-02-26T03:56:39;11.45;;;6.50;;
59145;SDS011;44928;53.074;6.646;2024-02-26T03:59:05;11.38;;;6.35;;
59145;SDS011;44928;53.074;6.646;2024-02-26T04:01:31;11.20;;;5.88;;
59145;SDS011;44928;53.074;6.646;2024-02-26T04:03:57;10.77;;;6.03;;
59145;SDS011;44928;53.074;6.646;2024-02-26T04:06:22;11.73;;;5.97;;
59145;SDS011;44928;53.074;6.646;2024-02-26T04:08:48;11.80;;;5.05;;
59145;SDS011;44928;53.074;6.646;2024-02-26T04:11:14;10.35;;;5.28;;
59145;SDS011;44928;53.074;6.646;2024-02-26T04:13:43;9.75;;;5.00;;
59145;SDS011;44928;53.074;6.646;2024-02-26T04:16:14;9.52;;;4.93;;
59145;SDS011;44928;53.074;6.646;2024-02-26T04:18:41;9.93;;;4.97;;
59145;SDS011;44928;53.074;6.646;2024-02-26T04:21:07;9.57;;;5.03;;
59145;SDS011;44928;53.074;6.646;2024-02-26T04:23:33;10.32;;;5.38;;
59145;SDS011;44928;53.074;6.646;2024-02-26T04:25:59;11.00;;;4.93;;
59145;SDS011;44928;53.074;6.646;2024-02-26T04:28:25;8.55;;;4.10;;
59145;SDS011;44928;53.074;6.646;2024-02-26T04:30:54;9.10;;;4.63;;
59145;SDS011;44928;53.074;6.646;2024-02-26T04:33:20;8.10;;;4.05;;
59145;SDS011;44928;53.074;6.646;2024-02-26T04:35:46;9.43;;;4.38;;
59145;SDS011;44928;53.074;6.646;2024-02-26T04:38:11;8.77;;;3.90;;
59145;SDS011;44928;53.074;6.646;2024-02-26T04:40:37;9.98;;;3.90;;
59145;SDS011;44928;53.074;6.646;2024-02-26T04:43:03;10.60;;;4.47;;
59145;SDS011;44928;53.074;6.646;2024-02-26T04:45:29;9.77;;;4.32;;
59145;SDS011;44928;53.074;6.646;2024-02-26T04:47:55;8.80;;;4.07;;
59145;SDS011;44928;53.074;6.646;2024-02-26T04:50:20;8.73;;;4.05;;
59145;SDS011;44928;53.074;6.646;2024-02-26T04:52:46;9.85;;;3.83;;
59145;SDS011;44928;53.074;6.646;2024-02-26T04:55:12;9.02;;;4.50;;
59145;SDS011;44928;53.074;6.646;2024-02-26T04:57:38;9.00;;;3.97;;
59145;SDS011;44928;53.074;6.646;2024-02-26T05:00:04;8.82;;;4.47;;
59145;SDS011;44928;53.074;6.646;2024-02-26T05:02:30;8.23;;;4.20;;
59145;SDS011;44928;53.074;6.646;2024-02-26T05:04:58;10.70;;;4.07;;
59145;SDS011;44928;53.074;6.646;2024-02-26T05:07:24;9.13;;;4.13;;
59145;SDS011;44928;53.074;6.646;2024-02-26T05:09:50;9.70;;;4.05;;
59145;SDS011;44928;53.074;6.646;2024-02-26T05:12:16;8.55;;;4.72;;
59145;SDS011;44928;53.074;6.646;2024-02-26T05:14:41;8.50;;;3.90;;
59145;SDS011;44928;53.074;6.646;2024-02-26T05:17:08;8.82;;;4.18;;
59145;SDS011;44928;53.074;6.646;2024-02-26T05:19:33;9.63;;;5.05;;
59145;SDS011;44928;53.074;6.646;2024-02-26T05:21:59;8.52;;;3.47;;
59145;SDS011;44928;53.074;6.646;2024-02-26T05:24:25;9.85;;;3.92;;
59145;SDS011;44928;53.074;6.646;2024-02-26T05:26:51;8.18;;;3.45;;
59145;SDS011;44928;53.074;6.646;2024-02-26T05:29:17;8.07;;;3.60;;
59145;SDS011;44928;53.074;6.646;2024-02-26T05:31:43;8.13;;;3.78;;
59145;SDS011;44928;53.074;6.646;2024-02-26T05:34:08;8.95;;;3.83;;
59145;SDS011;44928;53.074;6.646;2024-02-26T05:36:34;8.23;;;3.65;;
59145;SDS011;44928;53.074;6.646;2024-02-26T05:39:00;7.10;;;2.92;;
59145;SDS011;44928;53.074;6.646;2024-02-26T05:41:26;7.97;;;3.20;;
59145;SDS011;44928;53.074;6.646;2024-02-26T05:43:52;9.57;;;3.45;;
59145;SDS011;44928;53.074;6.646;2024-02-26T05:46:19;7.93;;;3.30;;
59145;SDS011;44928;53.074;6.646;2024-02-26T05:48:52;8.52;;;3.15;;
59145;SDS011;44928;53.074;6.646;2024-02-26T05:51:18;7.70;;;2.90;;
59145;SDS011;44928;53.074;6.646;2024-02-26T05:53:44;7.00;;;2.80;;
59145;SDS011;44928;53.074;6.646;2024-02-26T05:56:12;7.03;;;2.80;;
59145;SDS011;44928;53.074;6.646;2024-02-26T05:58:37;7.03;;;3.10;;
59145;SDS011;44928;53.074;6.646;2024-02-26T06:01:03;6.80;;;2.78;;
59145;SDS011;44928;53.074;6.646;2024-02-26T06:03:29;8.30;;;2.70;;
59145;SDS011;44928;53.074;6.646;2024-02-26T06:05:55;7.22;;;2.70;;
59145;SDS011;44928;53.074;6.646;2024-02-26T06:08:20;6.75;;;2.85;;
59145;SDS011;44928;53.074;6.646;2024-02-26T06:10:47;7.70;;;2.95;;
59145;SDS011;44928;53.074;6.646;2024-02-26T06:13:13;5.70;;;2.42;;
59145;SDS011;44928;53.074;6.646;2024-02-26T06:15:38;6.57;;;2.67;;
59145;SDS011;44928;53.074;6.646;2024-02-26T06:18:04;7.03;;;2.95;;
59145;SDS011;44928;53.074;6.646;2024-02-26T06:20:30;7.03;;;2.85;;
59145;SDS011;44928;53.074;6.646;2024-02-26T06:22:56;8.82;;;2.90;;
59145;SDS011;44928;53.074;6.646;2024-02-26T06:25:22;7.22;;;2.70;;
59145;SDS011;44928;53.074;6.646;2024-02-26T06:27:47;6.55;;;2.70;;
59145;SDS011;44928;53.074;6.646;2024-02-26T06:30:13;7.32;;;2.88;;
59145;SDS011;44928;53.074;6.646;2024-02-26T06:32:39;7.10;;;3.15;;
59145;SDS011;44928;53.074;6.646;2024-02-26T06:35:05;6.80;;;2.80;;
59145;SDS011;44928;53.074;6.646;2024-02-26T06:37:35;6.72;;;2.70;;
59145;SDS011;44928;53.074;6.646;2024-02-26T06:40:01;7.03;;;3.05;;
59145;SDS011;44928;53.074;6.646;2024-02-26T06:42:29;7.13;;;2.92;;
59145;SDS011;44928;53.074;6.646;2024-02-26T06:44:55;6.78;;;2.88;;
59145;SDS011;44928;53.074;6.646;2024-02-26T06:47:21;7.65;;;2.97;;
59145;SDS011;44928;53.074;6.646;2024-02-26T06:49:47;6.88;;;2.80;;
59145;SDS011;44928;53.074;6.646;2024-02-26T06:52:13;7.90;;;3.15;;
59145;SDS011;44928;53.074;6.646;2024-02-26T06:54:38;7.22;;;3.10;;
59145;SDS011;44928;53.074;6.646;2024-02-26T06:57:04;8.55;;;2.85;;
59145;SDS011;44928;53.074;6.646;2024-02-26T06:59:30;7.18;;;3.10;;
59145;SDS011;44928;53.074;6.646;2024-02-26T07:01:56;7.15;;;2.80;;
59145;SDS011;44928;53.074;6.646;2024-02-26T07:04:21;6.72;;;3.08;;
59145;SDS011;44928;53.074;6.646;2024-02-26T07:06:47;6.32;;;2.55;;
59145;SDS011;44928;53.074;6.646;2024-02-26T07:09:13;6.85;;;3.10;;
59145;SDS011;44928;53.074;6.646;2024-02-26T07:11:39;7.32;;;3.13;;
59145;SDS011;44928;53.074;6.646;2024-02-26T07:14:09;7.25;;;3.25;;
59145;SDS011;44928;53.074;6.646;2024-02-26T07:16:35;6.97;;;2.72;;
59145;SDS011;44928;53.074;6.646;2024-02-26T07:19:01;7.40;;;3.15;;
59145;SDS011;44928;53.074;6.646;2024-02-26T07:21:27;7.20;;;3.20;;
59145;SDS011;44928;53.074;6.646;2024-02-26T07:23:53;7.65;;;3.25;;
59145;SDS011;44928;53.074;6.646;2024-02-26T07:26:19;7.65;;;2.92;;
59145;SDS011;44928;53.074;6.646;2024-02-26T07:28:45;8.88;;;2.85;;
59145;SDS011;44928;53.074;6.646;2024-02-26T07:31:12;7.00;;;2.95;;
59145;SDS011;44928;53.074;6.646;2024-02-26T07:33:38;7.72;;;3.20;;
59145;SDS011;44928;53.074;6.646;2024-02-26T07:36:04;7.60;;;3.28;;
59145;SDS011;44928;53.074;6.646;2024-02-26T07:38:30;7.55;;;3.28;;
59145;SDS011;44928;53.074;6.646;2024-02-26T07:40:55;7.40;;;3.10;;
59145;SDS011;44928;53.074;6.646;2024-02-26T07:43:22;7.28;;;3.30;;
59145;SDS011;44928;53.074;6.646;2024-02-26T07:45:48;7.50;;;3.03;;
59145;SDS011;44928;53.074;6.646;2024-02-26T07:48:13;7.18;;;3.30;;
59145;SDS011;44928;53.074;6.646;2024-02-26T07:50:39;7.38;;;3.55;;
59145;SDS011;44928;53.074;6.646;2024-02-26T07:53:06;6.85;;;3.03;;
59145;SDS011;44928;53.074;6.646;2024-02-26T07:55:31;8.48;;;3.30;;
59145;SDS011;44928;53.074;6.646;2024-02-26T07:57:57;7.00;;;3.20;;
59145;SDS011;44928;53.074;6.646;2024-02-26T08:00:23;7.00;;;3.13;;
59145;SDS011;44928;53.074;6.646;2024-02-26T08:02:49;7.68;;;3.33;;
59145;SDS011;44928;53.074;6.646;2024-02-26T08:05:14;6.88;;;2.92;;
59145;SDS011;44928;53.074;6.646;2024-02-26T08:07:40;7.88;;;3.17;;
59145;SDS011;44928;53.074;6.646;2024-02-26T08:10:06;6.90;;;3.20;;
59145;SDS011;44928;53.074;6.646;2024-02-26T08:12:32;6.75;;;3.15;;
59145;SDS011;44928;53.074;6.646;2024-02-26T08:14:58;8.18;;;3.20;;
59145;SDS011;44928;53.074;6.646;2024-02-26T08:17:25;8.05;;;3.33;;
59145;SDS011;44928;53.074;6.646;2024-02-26T08:19:52;6.65;;;2.78;;
59145;SDS011;44928;53.074;6.646;2024-02-26T08:22:18;7.35;;;2.92;;
59145;SDS011;44928;53.074;6.646;2024-02-26T08:24:44;6.78;;;2.90;;
59145;SDS011;44928;53.074;6.646;2024-02-26T08:27:09;8.02;;;3.00;;
59145;SDS011;44928;53.074;6.646;2024-02-26T08:29:35;7.03;;;2.78;;
59145;SDS011;44928;53.074;6.646;2024-02-26T08:32:01;7.68;;;2.90;;
59145;SDS011;44928;53.074;6.646;2024-02-26T08:34:27;6.22;;;2.80;;
59145;SDS011;44928;53.074;6.646;2024-02-26T08:36:53;6.80;;;3.03;;
59145;SDS011;44928;53.074;6.646;2024-02-26T08:39:18;7.55;;;3.08;;
59145;SDS011;44928;53.074;6.646;2024-02-26T08:41:45;6.93;;;2.80;;
59145;SDS011;44928;53.074;6.646;2024-02-26T08:44:11;7.18;;;2.70;;
59145;SDS011;44928;53.074;6.646;2024-02-26T08:46:37;6.82;;;3.08;;
59145;SDS011;44928;53.074;6.646;2024-02-26T08:49:03;6.78;;;2.97;;
59145;SDS011;44928;53.074;6.646;2024-02-26T08:51:29;7.20;;;3.28;;
59145;SDS011;44928;53.074;6.646;2024-02-26T08:53:55;6.68;;;2.70;;
59145;SDS011;44928;53.074;6.646;2024-02-26T08:56:21;7.65;;;3.05;;
59145;SDS011;44928;53.074;6.646;2024-02-26T08:58:47;6.90;;;3.08;;
59145;SDS011;44928;53.074;6.646;2024-02-26T09:01:18;7.43;;;3.05;;
59145;SDS011;44928;53.074;6.646;2024-02-26T09:03:44;6.68;;;2.67;;
59145;SDS011;44928;53.074;6.646;2024-02-26T09:06:10;7.35;;;3.00;;
59145;SDS011;44928;53.074;6.646;2024-02-26T09:08:39;7.22;;;3.17;;
59145;SDS011;44928;53.074;6.646;2024-02-26T09:11:05;8.38;;;3.05;;
59145;SDS011;44928;53.074;6.646;2024-02-26T09:13:31;7.53;;;3.13;;
59145;SDS011;44928;53.074;6.646;2024-02-26T09:15:57;7.45;;;3.38;;
59145;SDS011;44928;53.074;6.646;2024-02-26T09:18:24;7.82;;;2.97;;
59145;SDS011;44928;53.074;6.646;2024-02-26T09:20:50;6.15;;;2.80;;
59145;SDS011;44928;53.074;6.646;2024-02-26T09:23:16;6.80;;;2.72;;
59145;SDS011;44928;53.074;6.646;2024-02-26T09:25:42;7.93;;;3.00;;
59145;SDS011;44928;53.074;6.646;2024-02-26T09:28:07;7.03;;;3.03;;
59145;SDS011;44928;53.074;6.646;2024-02-26T09:30:33;6.90;;;2.90;;
59145;SDS011;44928;53.074;6.646;2024-02-26T09:32:59;8.80;;;3.60;;
59145;SDS011;44928;53.074;6.646;2024-02-26T09:35:25;8.73;;;3.25;;
59145;SDS011;44928;53.074;6.646;2024-02-26T09:37:52;7.32;;;3.00;;
59145;SDS011;44928;53.074;6.646;2024-02-26T09:40:18;6.53;;;2.90;;
59145;SDS011;44928;53.074;6.646;2024-02-26T09:42:45;8.07;;;3.25;;
59145;SDS011;44928;53.074;6.646;2024-02-26T09:45:18;6.55;;;2.65;;
59145;SDS011;44928;53.074;6.646;2024-02-26T09:47:45;7.70;;;3.17;;
59145;SDS011;44928;53.074;6.646;2024-02-26T09:50:13;7.85;;;2.90;;
59145;SDS011;44928;53.074;6.646;2024-02-26T09:52:43;8.52;;;3.28;;
59145;SDS011;44928;53.074;6.646;2024-02-26T09:55:09;7.40;;;2.92;;
59145;SDS011;44928;53.074;6.646;2024-02-26T09:57:36;6.43;;;3.05;;
59145;SDS011;44928;53.074;6.646;2024-02-26T10:00:03;7.63;;;3.00;;
59145;SDS011;44928;53.074;6.646;2024-02-26T10:02:30;7.03;;;3.00;;
59145;SDS011;44928;53.074;6.646;2024-02-26T10:04:59;6.57;;;2.70;;
59145;SDS011;44928;53.074;6.646;2024-02-26T10:07:30;6.45;;;2.70;;
59145;SDS011;44928;53.074;6.646;2024-02-26T10:09:56;6.85;;;2.78;;
59145;SDS011;44928;53.074;6.646;2024-02-26T10:12:22;6.30;;;2.63;;
59145;SDS011;44928;53.074;6.646;2024-02-26T10:14:51;7.07;;;2.88;;
59145;SDS011;44928;53.074;6.646;2024-02-26T10:17:17;7.28;;;2.75;;
59145;SDS011;44928;53.074;6.646;2024-02-26T10:19:45;7.03;;;2.70;;
59145;SDS011;44928;53.074;6.646;2024-02-26T10:22:11;6.13;;;2.70;;
59145;SDS011;44928;53.074;6.646;2024-02-26T10:24:36;7.03;;;2.97;;
59145;SDS011;44928;53.074;6.646;2024-02-26T10:27:02;6.38;;;2.80;;
59145;SDS011;44928;53.074;6.646;2024-02-26T10:29:30;5.82;;;2.38;;
59145;SDS011;44928;53.074;6.646;2024-02-26T10:31:56;7.15;;;3.00;;
59145;SDS011;44928;53.074;6.646;2024-02-26T10:34:22;8.43;;;2.97;;
59145;SDS011;44928;53.074;6.646;2024-02-26T10:36:48;7.57;;;2.92;;
59145;SDS011;44928;53.074;6.646;2024-02-26T10:39:14;6.80;;;2.75;;
59145;SDS011;44928;53.074;6.646;2024-02-26T10:41:41;6.78;;;2.50;;
59145;SDS011;44928;53.074;6.646;2024-02-26T10:44:11;6.00;;;2.55;;
59145;SDS011;44928;53.074;6.646;2024-02-26T10:46:38;6.82;;;2.60;;
59145;SDS011;44928;53.074;6.646;2024-02-26T10:49:08;5.90;;;2.30;;
59145;SDS011;44928;53.074;6.646;2024-02-26T10:51:40;6.50;;;2.53;;
59145;SDS011;44928;53.074;6.646;2024-02-26T10:54:10;7.07;;;2.67;;
59145;SDS011;44928;53.074;6.646;2024-02-26T10:56:41;6.22;;;2.60;;
59145;SDS011;44928;53.074;6.646;2024-02-26T10:59:11;6.70;;;2.67;;
59145;SDS011;44928;53.074;6.646;2024-02-26T11:01:37;6.38;;;2.58;;
59145;SDS011;44928;53.074;6.646;2024-02-26T11:04:06;5.15;;;2.25;;
59145;SDS011;44928;53.074;6.646;2024-02-26T11:06:33;6.00;;;2.45;;
59145;SDS011;44928;53.074;6.646;2024-02-26T11:09:00;5.55;;;2.10;;
59145;SDS011;44928;53.074;6.646;2024-02-26T11:11:28;7.40;;;2.40;;
59145;SDS011;44928;53.074;6.646;2024-02-26T11:13:56;5.55;;;2.17;;
59145;SDS011;44928;53.074;6.646;2024-02-26T11:16:24;6.88;;;2.47;;
59145;SDS011;44928;53.074;6.646;2024-02-26T11:18:53;6.00;;;2.30;;
59145;SDS011;44928;53.074;6.646;2024-02-26T11:21:20;5.05;;;1.95;;
59145;SDS011;44928;53.074;6.646;2024-02-26T11:24:04;4.97;;;1.77;;
59145;SDS011;44928;53.074;6.646;2024-02-26T11:26:36;5.95;;;1.83;;
59145;SDS011;44928;53.074;6.646;2024-02-26T11:29:10;7.22;;;2.15;;
59145;SDS011;44928;53.074;6.646;2024-02-26T11:31:38;5.40;;;1.90;;
59145;SDS011;44928;53.074;6.646;2024-02-26T11:34:06;4.45;;;1.70;;
59145;SDS011;44928;53.074;6.646;2024-02-26T11:36:33;4.20;;;1.70;;
59145;SDS011;44928;53.074;6.646;2024-02-26T11:38:59;6.18;;;2.03;;
59145;SDS011;44928;53.074;6.646;2024-02-26T11:41:25;4.28;;;1.70;;
59145;SDS011;44928;53.074;6.646;2024-02-26T11:44:03;4.65;;;1.75;;
59145;SDS011;44928;53.074;6.646;2024-02-26T11:46:41;3.83;;;1.55;;
59145;SDS011;44928;53.074;6.646;2024-02-26T11:51:56;5.15;;;1.90;;
59145;SDS011;44928;53.074;6.646;2024-02-26T11:54:45;5.22;;;1.67;;
59145;SDS011;44928;53.074;6.646;2024-02-26T11:59:54;4.20;;;1.60;;
59145;SDS011;44928;53.074;6.646;2024-02-26T12:02:40;4.93;;;1.80;;
59145;SDS011;44928;53.074;6.646;2024-02-26T12:05:10;5.18;;;1.77;;
59145;SDS011;44928;53.074;6.646;2024-02-26T12:07:39;5.85;;;2.13;;
59145;SDS011;44928;53.074;6.646;2024-02-26T12:12:59;5.32;;;1.92;;
59145;SDS011;44928;53.074;6.646;2024-02-26T12:15:36;5.65;;;2.25;;
59145;SDS011;44928;53.074;6.646;2024-02-26T12:18:03;6.13;;;2.20;;
59145;SDS011;44928;53.074;6.646;2024-02-26T12:20:33;5.60;;;1.87;;
59145;SDS011;44928;53.074;6.646;2024-02-26T12:23:00;6.35;;;2.40;;
59145;SDS011;44928;53.074;6.646;2024-02-26T12:25:28;7.18;;;2.35;;
59145;SDS011;44928;53.074;6.646;2024-02-26T12:27:55;7.78;;;3.10;;
59145;SDS011;44928;53.074;6.646;2024-02-26T12:30:21;7.95;;;3.28;;
59145;SDS011;44928;53.074;6.646;2024-02-26T12:32:48;8.13;;;3.40;;
59145;SDS011;44928;53.074;6.646;2024-02-26T12:35:15;11.68;;;3.50;;
59145;SDS011;44928;53.074;6.646;2024-02-26T12:37:42;8.02;;;3.38;;
59145;SDS011;44928;53.074;6.646;2024-02-26T12:40:09;7.13;;;3.03;;
59145;SDS011;44928;53.074;6.646;2024-02-26T12:42:37;7.78;;;3.47;;
59145;SDS011;44928;53.074;6.646;2024-02-26T12:45:08;7.35;;;3.13;;
59145;SDS011;44928;53.074;6.646;2024-02-26T12:50:02;8.82;;;4.07;;
59145;SDS011;44928;53.074;6.646;2024-02-26T12:52:30;8.52;;;3.50;;
59145;SDS011;44928;53.074;6.646;2024-02-26T12:54:59;7.35;;;3.55;;
59145;SDS011;44928;53.074;6.646;2024-02-26T12:57:27;8.52;;;3.15;;
59145;SDS011;44928;53.074;6.646;2024-02-26T12:59:57;7.80;;;3.63;;
59145;SDS011;44928;53.074;6.646;2024-02-26T13:02:26;8.75;;;3.75;;
59145;SDS011;44928;53.074;6.646;2024-02-26T13:04:53;7.95;;;3.72;;
59145;SDS011;44928;53.074;6.646;2024-02-26T13:07:20;9.15;;;4.05;;
59145;SDS011;44928;53.074;6.646;2024-02-26T13:09:46;8.45;;;3.85;;
59145;SDS011;44928;53.074;6.646;2024-02-26T13:12:12;8.95;;;3.85;;
59145;SDS011;44928;53.074;6.646;2024-02-26T13:14:39;8.43;;;3.65;;
59145;SDS011;44928;53.074;6.646;2024-02-26T13:17:05;10.60;;;4.63;;
59145;SDS011;44928;53.074;6.646;2024-02-26T13:19:30;8.43;;;3.72;;
59145;SDS011;44928;53.074;6.646;2024-02-26T13:22:02;8.77;;;3.67;;
59145;SDS011;44928;53.074;6.646;2024-02-26T13:24:29;10.43;;;4.10;;
59145;SDS011;44928;53.074;6.646;2024-02-26T13:26:56;8.57;;;3.85;;
59145;SDS011;44928;53.074;6.646;2024-02-26T13:29:22;9.32;;;3.78;;
59145;SDS011;44928;53.074;6.646;2024-02-26T13:31:47;8.27;;;3.97;;
59145;SDS011;44928;53.074;6.646;2024-02-26T13:34:27;9.10;;;4.00;;
59145;SDS011;44928;53.074;6.646;2024-02-26T13:36:56;8.65;;;4.32;;
59145;SDS011;44928;53.074;6.646;2024-02-26T13:39:25;9.35;;;4.78;;
59145;SDS011;44928;53.074;6.646;2024-02-26T13:41:53;8.18;;;3.97;;
59145;SDS011;44928;53.074;6.646;2024-02-26T13:44:19;9.75;;;4.82;;
59145;SDS011;44928;53.074;6.646;2024-02-26T13:46:46;9.60;;;4.85;;
59145;SDS011;44928;53.074;6.646;2024-02-26T13:49:12;10.38;;;4.47;;
59145;SDS011;44928;53.074;6.646;2024-02-26T13:51:38;9.70;;;4.75;;
59145;SDS011;44928;53.074;6.646;2024-02-26T13:54:04;10.20;;;5.03;;
59145;SDS011;44928;53.074;6.646;2024-02-26T13:56:31;10.68;;;5.35;;
59145;SDS011;44928;53.074;6.646;2024-02-26T13:58:57;9.60;;;4.75;;
59145;SDS011;44928;53.074;6.646;2024-02-26T14:01:24;10.30;;;5.30;;
59145;SDS011;44928;53.074;6.646;2024-02-26T14:03:50;9.85;;;4.90;;
59145;SDS011;44928;53.074;6.646;2024-02-26T14:06:16;9.10;;;4.80;;
59145;SDS011;44928;53.074;6.646;2024-02-26T14:08:42;10.30;;;5.55;;
59145;SDS011;44928;53.074;6.646;2024-02-26T14:11:08;10.30;;;4.85;;
59145;SDS011;44928;53.074;6.646;2024-02-26T14:13:34;11.15;;;5.72;;
59145;SDS011;44928;53.074;6.646;2024-02-26T14:15:59;11.73;;;5.63;;
59145;SDS011;44928;53.074;6.646;2024-02-26T14:18:25;10.65;;;5.43;;
59145;SDS011;44928;53.074;6.646;2024-02-26T14:20:52;10.77;;;4.97;;
59145;SDS011;44928;53.074;6.646;2024-02-26T14:23:20;10.40;;;5.45;;
59145;SDS011;44928;53.074;6.646;2024-02-26T14:25:46;11.77;;;5.75;;
59145;SDS011;44928;53.074;6.646;2024-02-26T14:28:12;10.85;;;5.57;;
59145;SDS011;44928;53.074;6.646;2024-02-26T14:30:37;10.43;;;5.50;;
59145;SDS011;44928;53.074;6.646;2024-02-26T14:33:03;10.15;;;5.60;;
59145;SDS011;44928;53.074;6.646;2024-02-26T14:35:29;10.68;;;5.75;;
59145;SDS011;44928;53.074;6.646;2024-02-26T14:37:55;11.90;;;5.32;;
59145;SDS011;44928;53.074;6.646;2024-02-26T14:40:25;10.48;;;5.55;;
59145;SDS011;44928;53.074;6.646;2024-02-26T14:42:51;11.00;;;5.13;;
59145;SDS011;44928;53.074;6.646;2024-02-26T14:45:17;11.98;;;5.90;;
59145;SDS011;44928;53.074;6.646;2024-02-26T14:47:43;12.05;;;5.80;;
59145;SDS011;44928;53.074;6.646;2024-02-26T14:50:09;11.70;;;6.55;;